createdAt,value
2018-11-12T16:53:55.676Z,57.18
2018-11-12T16:56:23.860Z,56.13
2018-11-12T16:58:51.962Z,55.98
2018-11-12T17:01:20.098Z,55.88
2018-11-12T17:03:48.184Z,55.84
2018-11-12T17:06:16.304Z,55.93
2018-11-12T17:08:44.429Z,56.00
2018-11-12T17:11:12.593Z,56.19
2018-11-12T17:19:26.407Z,56.81
2018-11-12T17:22:01.353Z,56.97
2018-11-12T17:24:29.538Z,57.16
2018-11-12T17:26:57.665Z,57.27
2018-11-12T17:29:25.791Z,57.39
2018-11-12T17:31:53.903Z,57.63
2018-11-12T17:34:22.002Z,57.75
2018-11-12T17:36:50.114Z,57.95
2018-11-12T17:39:18.248Z,58.15
2018-11-12T17:41:46.355Z,57.96
2018-11-12T17:44:14.454Z,57.87
2018-11-12T17:46:42.566Z,57.85
2018-11-12T17:49:10.682Z,57.70
2018-11-12T17:51:38.811Z,57.52
2018-11-12T17:54:06.939Z,57.64
2018-11-12T17:56:35.051Z,57.96
2018-11-12T17:59:03.157Z,57.54
2018-11-12T18:01:31.355Z,57.16
2018-11-12T18:03:59.403Z,57.38
2018-11-12T18:06:27.518Z,58.00
2018-11-12T18:08:55.685Z,58.31
2018-11-12T18:11:23.895Z,58.71
2018-11-12T18:14:10.866Z,58.99
2018-11-12T18:16:39.081Z,59.49
2018-11-12T18:19:07.668Z,59.94
2018-11-12T18:21:35.809Z,60.16
2018-11-12T18:24:04.039Z,60.46
2018-11-12T18:26:32.164Z,60.67
2018-11-12T18:29:00.288Z,60.99
2018-11-12T18:31:28.563Z,61.39
2018-11-12T18:33:56.606Z,61.51
2018-11-12T18:36:24.788Z,61.65
2018-11-12T18:38:52.935Z,62.22
2018-11-12T18:41:21.051Z,62.41
2018-11-12T18:43:49.208Z,62.59
2018-11-12T18:46:17.331Z,62.98
2018-11-12T18:48:45.427Z,63.02
2018-11-12T18:51:13.527Z,63.74
2018-11-12T18:53:41.619Z,64.28
2018-11-12T18:56:09.718Z,64.69
2018-11-12T18:58:37.840Z,65.25
2018-11-12T19:01:06.561Z,65.89
2018-11-12T19:03:34.782Z,66.66
2018-11-12T19:06:03.407Z,67.30
2018-11-12T19:08:31.511Z,67.62
2018-11-12T19:10:59.688Z,67.81
2018-11-12T19:13:28.343Z,68.10
2018-11-12T19:15:56.484Z,68.13
2018-11-12T19:18:24.651Z,68.44
2018-11-12T19:20:52.739Z,68.54
2018-11-12T19:23:20.863Z,69.13
2018-11-12T19:25:48.986Z,69.48
2018-11-12T19:28:17.087Z,70.35
2018-11-12T19:30:45.222Z,70.55
2018-11-12T19:33:13.361Z,70.69
2018-11-12T19:35:41.478Z,70.72
2018-11-12T19:38:09.641Z,70.66
2018-11-12T19:40:37.780Z,71.28
2018-11-12T19:43:05.874Z,71.33
2018-11-12T19:45:33.974Z,71.51
2018-11-12T19:48:02.068Z,71.92
2018-11-12T19:50:30.750Z,72.16
2018-11-12T19:52:59.642Z,72.25
2018-11-12T19:55:27.802Z,71.50
2018-11-12T19:57:55.904Z,71.64
2018-11-12T20:00:25.405Z,72.25
2018-11-12T20:02:54.783Z,72.28
2018-11-12T20:05:23.519Z,72.07
2018-11-12T20:07:51.628Z,71.69
2018-11-12T20:10:20.993Z,70.95
2018-11-12T20:15:58.007Z,69.28
2018-11-12T20:18:26.122Z,68.61
2018-11-12T20:20:54.250Z,67.95
2018-11-12T20:23:22.362Z,67.44
2018-11-12T20:25:50.463Z,66.12
2018-11-12T20:28:18.595Z,65.62
2018-11-12T20:30:46.698Z,64.81
2018-11-12T20:33:14.850Z,64.19
2018-11-12T20:35:42.998Z,63.42
2018-11-12T20:38:11.113Z,62.32
2018-11-12T20:40:39.270Z,62.59
2018-11-12T20:43:07.411Z,61.85
2018-11-12T20:45:35.642Z,60.94
2018-11-12T20:48:03.802Z,60.57
2018-11-12T20:50:31.951Z,60.65
2018-11-12T20:53:00.041Z,60.26
2018-11-12T20:55:28.237Z,59.93
2018-11-12T20:57:56.303Z,59.80
2018-11-12T21:00:25.707Z,59.65
2018-11-12T21:02:54.403Z,59.57
2018-11-12T21:05:23.914Z,59.32
2018-11-12T21:07:52.037Z,59.15
2018-11-12T21:10:21.533Z,58.84
2018-11-12T21:21:37.170Z,58.17
2018-11-12T23:13:30.491Z,55.86
2018-11-12T23:21:43.166Z,55.80
2018-11-12T23:24:11.306Z,55.93
2018-11-12T23:26:39.419Z,55.89
2018-11-12T23:29:07.761Z,55.90
2018-11-12T23:31:35.869Z,55.80
2018-11-12T23:34:03.990Z,55.98
2018-11-12T23:36:32.138Z,56.06
2018-11-12T23:39:00.290Z,56.24
2018-11-12T23:41:28.420Z,55.98
2018-11-12T23:43:56.534Z,56.19
2018-11-12T23:46:24.679Z,56.30
2018-11-12T23:48:52.798Z,56.30
2018-11-12T23:51:20.919Z,56.63
2018-11-12T23:53:49.047Z,56.69
2018-11-12T23:56:17.164Z,56.63
2018-11-12T23:58:45.339Z,56.55
